sensor_id;sensor_type;location;lat;lon;timestamp;pressure;altitude;pressure_sealevel;temperature;humidity
49583;BME280;36329;48.816;44.624;2023-03-22T00:02:57;100861;;;11.3;55.6
49583;BME280;36329;48.816;44.624;2023-03-22T00:05:59;100856;;;11.2;55.9
49583;BME280;36329;48.816;44.624;2023-03-22T00:09:02;100864;;;11.3;55.8
49583;BME280;36329;48.816;44.624;2023-03-22T00:12:05;100868;;;11.3;55.9
49583;BME280;36329;48.816;44.624;2023-03-22T00:15:08;100864;;;11.2;56.2
49583;BME280;36329;48.816;44.624;2023-03-22T00:18:10;100857;;;11.2;56.4
49583;BME280;36329;48.816;44.624;2023-03-22T00:21:14;100861;;;11.2;56.8
49583;BME280;36329;48.816;44.624;2023-03-22T00:24:16;100865;;;11.2;56.9
49583;BME280;36329;48.816;44.624;2023-03-22T00:27:18;100858;;;11.3;57
49583;BME280;36329;48.816;44.624;2023-03-22T00:30:20;100859;;;11.3;57
49583;BME280;36329;48.816;44.624;2023-03-22T00:33:23;100857;;;11.4;57.3
49583;BME280;36329;48.816;44.624;2023-03-22T00:36:26;100857;;;11.4;56.9
49583;BME280;36329;48.816;44.624;2023-03-22T00:39:28;100855;;;11.4;57.2
49583;BME280;36329;48.816;44.624;2023-03-22T00:42:30;100859;;;11.3;57.9
49583;BME280;36329;48.816;44.624;2023-03-22T00:45:32;100860;;;11.4;57.9
49583;BME280;36329;48.816;44.624;2023-03-22T00:48:34;100860;;;11.3;58.2
49583;BME280;36329;48.816;44.624;2023-03-22T00:51:36;100870;;;11.2;58.5
49583;BME280;36329;48.816;44.624;2023-03-22T00:54:38;100869;;;11.3;58.4
49583;BME280;36329;48.816;44.624;2023-03-22T00:57:40;100872;;;11.1;59.4
49583;BME280;36329;48.816;44.624;2023-03-22T01:00:42;100878;;;11;59.5
49583;BME280;36329;48.816;44.624;2023-03-22T01:03:45;100874;;;11;59.7
49583;BME280;36329;48.816;44.624;2023-03-22T01:06:47;100882;;;11.1;59.4
49583;BME280;36329;48.816;44.624;2023-03-22T01:09:49;100886;;;11.1;59.2
49583;BME280;36329;48.816;44.624;2023-03-22T01:12:52;100890;;;11.1;58.7
49583;BME280;36329;48.816;44.624;2023-03-22T01:15:54;100901;;;11.2;58.8
49583;BME280;36329;48.816;44.624;2023-03-22T01:18:56;100897;;;11;59.7
49583;BME280;36329;48.816;44.624;2023-03-22T01:21:58;100889;;;10.9;60.2
49583;BME280;36329;48.816;44.624;2023-03-22T01:25:00;100892;;;10.8;61.2
49583;BME280;36329;48.816;44.624;2023-03-22T01:28:04;100890;;;10.9;61.4
49583;BME280;36329;48.816;44.624;2023-03-22T01:31:06;100890;;;10.9;61.4
49583;BME280;36329;48.816;44.624;2023-03-22T01:34:09;100885;;;10.9;62
49583;BME280;36329;48.816;44.624;2023-03-22T01:37:11;100887;;;11;62
49583;BME280;36329;48.816;44.624;2023-03-22T01:40:14;100892;;;11.1;61.6
49583;BME280;36329;48.816;44.624;2023-03-22T01:43:16;100889;;;11.1;61.8
49583;BME280;36329;48.816;44.624;2023-03-22T01:46:18;100895;;;11.3;61.3
49583;BME280;36329;48.816;44.624;2023-03-22T01:49:24;100891;;;11.1;61.6
49583;BME280;36329;48.816;44.624;2023-03-22T01:52:28;100898;;;11.1;61.9
49583;BME280;36329;48.816;44.624;2023-03-22T01:55:31;100900;;;11;61.8
49583;BME280;36329;48.816;44.624;2023-03-22T01:58:35;100896;;;11.1;61.8
49583;BME280;36329;48.816;44.624;2023-03-22T02:01:38;100899;;;11.2;61.6
49583;BME280;36329;48.816;44.624;2023-03-22T02:04:41;100901;;;11.1;62.4
49583;BME280;36329;48.816;44.624;2023-03-22T02:07:43;100901;;;11.1;62.6
49583;BME280;36329;48.816;44.624;2023-03-22T02:10:46;100903;;;11.2;62.6
49583;BME280;36329;48.816;44.624;2023-03-22T02:13:54;100906;;;11.2;62.7
49583;BME280;36329;48.816;44.624;2023-03-22T02:17:13;100910;;;11.3;62.4
49583;BME280;36329;48.816;44.624;2023-03-22T02:20:31;100912;;;11.3;62.6
49583;BME280;36329;48.816;44.624;2023-03-22T02:24:06;100914;;;11.2;63.3
49583;BME280;36329;48.816;44.624;2023-03-22T02:27:18;100918;;;11;64.3
49583;BME280;36329;48.816;44.624;2023-03-22T02:30:38;100930;;;11;64.7
49583;BME280;36329;48.816;44.624;2023-03-22T02:33:58;100938;;;11;65.1
49583;BME280;36329;48.816;44.624;2023-03-22T02:37:14;100922;;;11;65.5
49583;BME280;36329;48.816;44.624;2023-03-22T02:40:30;100934;;;11.1;65.4
49583;BME280;36329;48.816;44.624;2023-03-22T02:43:37;100937;;;11.2;64.7
49583;BME280;36329;48.816;44.624;2023-03-22T02:46:45;100938;;;11.2;63.8
49583;BME280;36329;48.816;44.624;2023-03-22T02:49:53;100942;;;11.4;63.4
49583;BME280;36329;48.816;44.624;2023-03-22T02:53:03;100941;;;11.5;63.3
49583;BME280;36329;48.816;44.624;2023-03-22T02:56:10;100943;;;11.4;63.4
49583;BME280;36329;48.816;44.624;2023-03-22T02:59:16;100945;;;11.1;64.2
49583;BME280;36329;48.816;44.624;2023-03-22T03:02:21;100944;;;11;64.3
49583;BME280;36329;48.816;44.624;2023-03-22T03:05:27;100947;;;11.3;63.4
49583;BME280;36329;48.816;44.624;2023-03-22T03:08:33;100944;;;11.3;62.9
49583;BME280;36329;48.816;44.624;2023-03-22T03:11:37;100948;;;11;63.6
49583;BME280;36329;48.816;44.624;2023-03-22T03:14:39;100946;;;10.4;65.8
49583;BME280;36329;48.816;44.624;2023-03-22T03:17:50;100950;;;10.4;65.5
49583;BME280;36329;48.816;44.624;2023-03-22T03:20:59;100949;;;10.6;64.2
49583;BME280;36329;48.816;44.624;2023-03-22T03:24:14;100948;;;10.6;64.5
49583;BME280;36329;48.816;44.624;2023-03-22T03:27:21;100947;;;10.6;65.4
49583;BME280;36329;48.816;44.624;2023-03-22T03:30:30;100946;;;10.7;65.2
49583;BME280;36329;48.816;44.624;2023-03-22T03:33:38;100949;;;10.8;65.6
49583;BME280;36329;48.816;44.624;2023-03-22T03:36:49;100965;;;11;65.2
49583;BME280;36329;48.816;44.624;2023-03-22T03:39:58;100973;;;11.1;64.9
49583;BME280;36329;48.816;44.624;2023-03-22T03:43:03;100974;;;11;65.6
49583;BME280;36329;48.816;44.624;2023-03-22T03:46:07;100972;;;11;66.1
49583;BME280;36329;48.816;44.624;2023-03-22T03:49:09;100977;;;11.1;66.6
49583;BME280;36329;48.816;44.624;2023-03-22T03:52:13;100976;;;11;67.7
49583;BME280;36329;48.816;44.624;2023-03-22T03:55:15;100979;;;11;69.1
49583;BME280;36329;48.816;44.624;2023-03-22T03:58:17;100975;;;10.9;70
49583;BME280;36329;48.816;44.624;2023-03-22T04:01:19;100976;;;11;70.1
49583;BME280;36329;48.816;44.624;2023-03-22T04:04:24;100975;;;10.9;70.4
49583;BME280;36329;48.816;44.624;2023-03-22T04:07:28;100980;;;10.9;70.2
49583;BME280;36329;48.816;44.624;2023-03-22T04:10:30;100987;;;11;69.5
49583;BME280;36329;48.816;44.624;2023-03-22T04:13:32;100984;;;11.1;69.5
49583;BME280;36329;48.816;44.624;2023-03-22T04:16:34;100984;;;11.2;68.6
49583;BME280;36329;48.816;44.624;2023-03-22T04:19:37;100984;;;11.4;67.4
49583;BME280;36329;48.816;44.624;2023-03-22T04:22:39;100988;;;11.4;66.9
49583;BME280;36329;48.816;44.624;2023-03-22T04:25:41;100985;;;11.3;67
49583;BME280;36329;48.816;44.624;2023-03-22T04:28:43;100992;;;11.4;66.7
49583;BME280;36329;48.816;44.624;2023-03-22T04:31:46;100996;;;11.4;67.3
49583;BME280;36329;48.816;44.624;2023-03-22T04:34:48;101000;;;11.5;67
49583;BME280;36329;48.816;44.624;2023-03-22T04:37:50;101003;;;11.5;66.9
49583;BME280;36329;48.816;44.624;2023-03-22T04:40:52;101006;;;11.4;67.3
49583;BME280;36329;48.816;44.624;2023-03-22T04:43:54;101009;;;11.4;67.5
49583;BME280;36329;48.816;44.624;2023-03-22T04:46:56;101011;;;11.6;66.8
49583;BME280;36329;48.816;44.624;2023-03-22T04:49:58;101017;;;11.6;67.4
49583;BME280;36329;48.816;44.624;2023-03-22T04:53:00;101017;;;11.6;68.4
49583;BME280;36329;48.816;44.624;2023-03-22T04:56:02;101022;;;11.6;68.7
49583;BME280;36329;48.816;44.624;2023-03-22T04:59:05;101021;;;11.6;69.2
49583;BME280;36329;48.816;44.624;2023-03-22T05:02:07;101020;;;12.1;68
49583;BME280;36329;48.816;44.624;2023-03-22T05:05:10;101023;;;12.1;67.6
49583;BME280;36329;48.816;44.624;2023-03-22T05:08:12;101026;;;12.3;67
49583;BME280;36329;48.816;44.624;2023-03-22T05:11:16;101029;;;12.4;66.8
49583;BME280;36329;48.816;44.624;2023-03-22T05:14:18;101031;;;12.5;65.8
49583;BME280;36329;48.816;44.624;2023-03-22T05:17:20;101033;;;12.8;64.2
49583;BME280;36329;48.816;44.624;2023-03-22T05:20:22;101028;;;13.3;62.1
49583;BME280;36329;48.816;44.624;2023-03-22T05:23:25;101033;;;13.7;60.8
49583;BME280;36329;48.816;44.624;2023-03-22T05:26:27;101034;;;13.8;60.4
49583;BME280;36329;48.816;44.624;2023-03-22T05:29:29;101037;;;14.1;59.9
49583;BME280;36329;48.816;44.624;2023-03-22T05:32:31;101040;;;14.4;59.1
49583;BME280;36329;48.816;44.624;2023-03-22T05:35:35;101039;;;14.3;59.5
49583;BME280;36329;48.816;44.624;2023-03-22T05:38:37;101045;;;13.9;60.1
49583;BME280;36329;48.816;44.624;2023-03-22T05:41:40;101041;;;13.5;61.4
49583;BME280;36329;48.816;44.624;2023-03-22T05:44:42;101045;;;13.4;62.4
49583;BME280;36329;48.816;44.624;2023-03-22T05:47:46;101052;;;13.6;62
49583;BME280;36329;48.816;44.624;2023-03-22T05:50:48;101049;;;13.8;61.8
49583;BME280;36329;48.816;44.624;2023-03-22T05:53:51;101047;;;13.9;61.2
49583;BME280;36329;48.816;44.624;2023-03-22T05:56:53;101047;;;13.9;61.2
49583;BME280;36329;48.816;44.624;2023-03-22T05:59:55;101051;;;13.8;61.5
49583;BME280;36329;48.816;44.624;2023-03-22T06:02:57;101054;;;13.8;61.7
49583;BME280;36329;48.816;44.624;2023-03-22T06:06:00;101054;;;13.8;60.5
49583;BME280;36329;48.816;44.624;2023-03-22T06:09:02;101057;;;13.7;60.4
49583;BME280;36329;48.816;44.624;2023-03-22T06:12:05;101060;;;13.8;60.4
49583;BME280;36329;48.816;44.624;2023-03-22T06:15:08;101056;;;13.8;60.4
49583;BME280;36329;48.816;44.624;2023-03-22T06:18:10;101052;;;14.2;59.4
49583;BME280;36329;48.816;44.624;2023-03-22T06:21:12;101049;;;14.7;57.6
49583;BME280;36329;48.816;44.624;2023-03-22T06:24:14;101050;;;15.2;56.1
49583;BME280;36329;48.816;44.624;2023-03-22T06:27:17;101049;;;15.4;55.2
49583;BME280;36329;48.816;44.624;2023-03-22T06:30:19;101049;;;15.8;55.2
49583;BME280;36329;48.816;44.624;2023-03-22T06:33:21;101051;;;16.3;53.3
49583;BME280;36329;48.816;44.624;2023-03-22T06:36:23;101051;;;16.5;52.7
49583;BME280;36329;48.816;44.624;2023-03-22T06:39:25;101049;;;17.1;51.5
49583;BME280;36329;48.816;44.624;2023-03-22T06:42:27;101053;;;17.9;49.1
49583;BME280;36329;48.816;44.624;2023-03-22T06:45:29;101051;;;17.8;49
49583;BME280;36329;48.816;44.624;2023-03-22T06:48:31;101055;;;17.7;48.3
49583;BME280;36329;48.816;44.624;2023-03-22T06:51:34;101062;;;17.5;48.9
49583;BME280;36329;48.816;44.624;2023-03-22T06:54:36;101065;;;17.6;49.2
49583;BME280;36329;48.816;44.624;2023-03-22T06:57:38;101066;;;18.3;46.8
49583;BME280;36329;48.816;44.624;2023-03-22T07:00:40;101073;;;18.5;46.1
49583;BME280;36329;48.816;44.624;2023-03-22T07:03:42;101074;;;18.8;45.7
49583;BME280;36329;48.816;44.624;2023-03-22T07:06:43;101079;;;18.8;45.2
49583;BME280;36329;48.816;44.624;2023-03-22T07:09:46;101081;;;19;44.3
49583;BME280;36329;48.816;44.624;2023-03-22T07:12:48;101084;;;19.1;43.5
49583;BME280;36329;48.816;44.624;2023-03-22T07:15:54;101078;;;19;43.8
49583;BME280;36329;48.816;44.624;2023-03-22T07:18:56;101076;;;19.4;42.7
49583;BME280;36329;48.816;44.624;2023-03-22T07:21:58;101072;;;19.5;42.6
49583;BME280;36329;48.816;44.624;2023-03-22T07:25:00;101067;;;19.8;41.7
49583;BME280;36329;48.816;44.624;2023-03-22T07:28:02;101069;;;19.9;41.4
49583;BME280;36329;48.816;44.624;2023-03-22T07:31:06;101072;;;20.1;41.3
49583;BME280;36329;48.816;44.624;2023-03-22T07:34:09;101079;;;20.1;41.1
49583;BME280;36329;48.816;44.624;2023-03-22T07:37:11;101074;;;20.6;40.4
49583;BME280;36329;48.816;44.624;2023-03-22T07:40:13;101076;;;20.8;40.3
49583;BME280;36329;48.816;44.624;2023-03-22T07:43:15;101079;;;20.9;39.5
49583;BME280;36329;48.816;44.624;2023-03-22T07:46:17;101079;;;21;39.3
49583;BME280;36329;48.816;44.624;2023-03-22T07:49:19;101083;;;20.7;39.8
49583;BME280;36329;48.816;44.624;2023-03-22T07:52:21;101083;;;20.5;40
49583;BME280;36329;48.816;44.624;2023-03-22T07:55:24;101079;;;20.3;41
49583;BME280;36329;48.816;44.624;2023-03-22T07:58:26;101079;;;20.7;40.6
49583;BME280;36329;48.816;44.624;2023-03-22T08:01:28;101075;;;21;39.6
49583;BME280;36329;48.816;44.624;2023-03-22T08:04:30;101076;;;21;39.7
49583;BME280;36329;48.816;44.624;2023-03-22T08:07:32;101077;;;20.8;40.6
49583;BME280;36329;48.816;44.624;2023-03-22T08:10:34;101070;;;21.6;39
49583;BME280;36329;48.816;44.624;2023-03-22T08:13:36;101070;;;21.1;39.6
49583;BME280;36329;48.816;44.624;2023-03-22T08:16:39;101066;;;21.8;38.4
49583;BME280;36329;48.816;44.624;2023-03-22T08:19:41;101061;;;21.4;38.7
49583;BME280;36329;48.816;44.624;2023-03-22T08:22:43;101065;;;21.3;39.4
49583;BME280;36329;48.816;44.624;2023-03-22T08:25:45;101069;;;21.2;39.2
49583;BME280;36329;48.816;44.624;2023-03-22T08:28:48;101072;;;21.5;39.1
49583;BME280;36329;48.816;44.624;2023-03-22T08:31:52;101067;;;21.9;38.5
49583;BME280;36329;48.816;44.624;2023-03-22T08:34:54;101066;;;22;37.6
49583;BME280;36329;48.816;44.624;2023-03-22T08:37:56;101069;;;21.9;38.3
49583;BME280;36329;48.816;44.624;2023-03-22T08:40:58;101069;;;22.4;37.4
49583;BME280;36329;48.816;44.624;2023-03-22T08:44:01;101069;;;22.8;36.5
49583;BME280;36329;48.816;44.624;2023-03-22T08:47:03;101064;;;22;37.4
49583;BME280;36329;48.816;44.624;2023-03-22T08:50:06;101069;;;22.4;36.9
49583;BME280;36329;48.816;44.624;2023-03-22T08:53:09;101068;;;22.1;37.9
49583;BME280;36329;48.816;44.624;2023-03-22T08:56:11;101066;;;22.7;36.6
49583;BME280;36329;48.816;44.624;2023-03-22T08:59:13;101069;;;22.8;36.2
49583;BME280;36329;48.816;44.624;2023-03-22T09:02:15;101070;;;22.1;37.4
49583;BME280;36329;48.816;44.624;2023-03-22T09:05:17;101068;;;21.9;37.8
49583;BME280;36329;48.816;44.624;2023-03-22T09:08:19;101072;;;22.5;37.2
49583;BME280;36329;48.816;44.624;2023-03-22T09:11:22;101069;;;22.6;36.3
49583;BME280;36329;48.816;44.624;2023-03-22T09:14:24;101077;;;22.5;36.4
49583;BME280;36329;48.816;44.624;2023-03-22T09:17:26;101080;;;23;35.5
49583;BME280;36329;48.816;44.624;2023-03-22T09:20:29;101074;;;22.8;36
49583;BME280;36329;48.816;44.624;2023-03-22T09:23:31;101076;;;22.9;35.8
49583;BME280;36329;48.816;44.624;2023-03-22T09:26:33;101070;;;22.7;36.4
49583;BME280;36329;48.816;44.624;2023-03-22T09:29:35;101070;;;22.9;36
49583;BME280;36329;48.816;44.624;2023-03-22T09:32:37;101070;;;22.9;36.6
49583;BME280;36329;48.816;44.624;2023-03-22T09:35:41;101062;;;22.5;36.6
49583;BME280;36329;48.816;44.624;2023-03-22T09:38:43;101053;;;22;37.1
49583;BME280;36329;48.816;44.624;2023-03-22T09:41:48;101058;;;21.9;37.2
49583;BME280;36329;48.816;44.624;2023-03-22T09:44:53;101050;;;22;36.8
49583;BME280;36329;48.816;44.624;2023-03-22T09:47:56;101042;;;22;35.9
49583;BME280;36329;48.816;44.624;2023-03-22T09:51:01;101043;;;22.3;34.2
49583;BME280;36329;48.816;44.624;2023-03-22T09:54:08;101040;;;22.6;34.8
49583;BME280;36329;48.816;44.624;2023-03-22T09:57:18;101038;;;22.3;35.2
49583;BME280;36329;48.816;44.624;2023-03-22T10:00:31;101038;;;22.6;34.6
49583;BME280;36329;48.816;44.624;2023-03-22T10:03:50;101039;;;22.2;35.2
49583;BME280;36329;48.816;44.624;2023-03-22T10:07:02;101032;;;21.9;36.2
49583;BME280;36329;48.816;44.624;2023-03-22T10:10:09;101037;;;21.8;37.1
49583;BME280;36329;48.816;44.624;2023-03-22T10:13:18;101029;;;22;35.9
49583;BME280;36329;48.816;44.624;2023-03-22T10:16:26;101028;;;22.1;35.5
49583;BME280;36329;48.816;44.624;2023-03-22T10:19:33;101027;;;22.4;34.4
49583;BME280;36329;48.816;44.624;2023-03-22T10:22:39;101025;;;22.6;34.9
49583;BME280;36329;48.816;44.624;2023-03-22T10:25:43;101026;;;22.5;35.1
49583;BME280;36329;48.816;44.624;2023-03-22T10:28:50;101029;;;22.2;36.1
49583;BME280;36329;48.816;44.624;2023-03-22T10:32:05;101024;;;22.1;35.4
49583;BME280;36329;48.816;44.624;2023-03-22T10:35:13;101022;;;22.6;35.4
49583;BME280;36329;48.816;44.624;2023-03-22T10:38:21;101032;;;22.6;35.9
49583;BME280;36329;48.816;44.624;2023-03-22T10:41:26;101027;;;21.9;36.4
49583;BME280;36329;48.816;44.624;2023-03-22T10:44:31;101026;;;22.4;36
49583;BME280;36329;48.816;44.624;2023-03-22T10:47:35;101027;;;22.3;35.8
49583;BME280;36329;48.816;44.624;2023-03-22T10:50:41;101026;;;22.3;35.6
49583;BME280;36329;48.816;44.624;2023-03-22T10:53:47;101022;;;22.2;36.4
49583;BME280;36329;48.816;44.624;2023-03-22T10:56:50;101023;;;21.6;36.7
49583;BME280;36329;48.816;44.624;2023-03-22T10:59:55;101028;;;20.9;38.5
49583;BME280;36329;48.816;44.624;2023-03-22T11:02:58;101029;;;20.9;39.3
49583;BME280;36329;48.816;44.624;2023-03-22T11:06:04;101015;;;21.2;38
49583;BME280;36329;48.816;44.624;2023-03-22T11:09:11;101017;;;20.4;40.2
49583;BME280;36329;48.816;44.624;2023-03-22T11:12:14;101019;;;20.2;40.3
49583;BME280;36329;48.816;44.624;2023-03-22T11:15:22;101023;;;19.8;41.3
49583;BME280;36329;48.816;44.624;2023-03-22T11:18:28;101021;;;19.6;41.3
49583;BME280;36329;48.816;44.624;2023-03-22T11:21:32;101026;;;19.2;42.2
49583;BME280;36329;48.816;44.624;2023-03-22T11:24:34;101021;;;19.1;42.5
49583;BME280;36329;48.816;44.624;2023-03-22T11:27:48;101029;;;19;43
49583;BME280;36329;48.816;44.624;2023-03-22T11:30:58;101026;;;18.9;43.7
49583;BME280;36329;48.816;44.624;2023-03-22T11:34:01;101030;;;18.9;43.7
49583;BME280;36329;48.816;44.624;2023-03-22T11:37:06;101028;;;18.9;43.9
49583;BME280;36329;48.816;44.624;2023-03-22T11:40:13;101024;;;19.4;43.7
49583;BME280;36329;48.816;44.624;2023-03-22T11:43:20;101033;;;19.4;43.4
49583;BME280;36329;48.816;44.624;2023-03-22T11:46:24;101027;;;19.2;43.7
49583;BME280;36329;48.816;44.624;2023-03-22T11:49:31;101024;;;19.2;43.4
49583;BME280;36329;48.816;44.624;2023-03-22T11:52:35;101029;;;18.8;44.1
49583;BME280;36329;48.816;44.624;2023-03-22T11:55:38;101023;;;18.7;45.1
49583;BME280;36329;48.816;44.624;2023-03-22T11:58:55;101028;;;18.9;45
49583;BME280;36329;48.816;44.624;2023-03-22T12:02:03;101024;;;19;44.1
49583;BME280;36329;48.816;44.624;2023-03-22T12:05:16;101032;;;19;44.6
49583;BME280;36329;48.816;44.624;2023-03-22T12:08:24;101027;;;18.9;43.9
49583;BME280;36329;48.816;44.624;2023-03-22T12:11:32;101024;;;18.4;45
49583;BME280;36329;48.816;44.624;2023-03-22T12:14:43;101024;;;18.1;45.4
49583;BME280;36329;48.816;44.624;2023-03-22T12:17:52;101024;;;18.6;44.8
49583;BME280;36329;48.816;44.624;2023-03-22T12:20:57;101023;;;18.5;44.7
49583;BME280;36329;48.816;44.624;2023-03-22T12:24:01;101016;;;18.1;45.2
49583;BME280;36329;48.816;44.624;2023-03-22T12:27:11;101015;;;18;45.4
49583;BME280;36329;48.816;44.624;2023-03-22T12:30:19;101011;;;18.1;45.3
49583;BME280;36329;48.816;44.624;2023-03-22T12:33:25;101018;;;18.1;44.6
49583;BME280;36329;48.816;44.624;2023-03-22T12:36:33;101015;;;18;46.5
49583;BME280;36329;48.816;44.624;2023-03-22T12:39:39;101015;;;18;44.2
49583;BME280;36329;48.816;44.624;2023-03-22T12:42:47;101018;;;18.1;44.2
49583;BME280;36329;48.816;44.624;2023-03-22T12:45:56;101016;;;18.1;43.5
49583;BME280;36329;48.816;44.624;2023-03-22T12:49:03;101020;;;17.6;46.1
49583;BME280;36329;48.816;44.624;2023-03-22T12:52:13;101017;;;17.6;44.5
49583;BME280;36329;48.816;44.624;2023-03-22T12:55:20;101019;;;17.6;44.1
49583;BME280;36329;48.816;44.624;2023-03-22T12:58:25;101018;;;17.8;43.5
49583;BME280;36329;48.816;44.624;2023-03-22T13:01:31;101021;;;17.9;43.5
49583;BME280;36329;48.816;44.624;2023-03-22T13:04:52;101019;;;18.1;43.4
49583;BME280;36329;48.816;44.624;2023-03-22T13:07:55;101017;;;17.8;42.9
49583;BME280;36329;48.816;44.624;2023-03-22T13:11:01;101026;;;17.7;43
49583;BME280;36329;48.816;44.624;2023-03-22T13:14:04;101016;;;17.3;43.2
49583;BME280;36329;48.816;44.624;2023-03-22T13:17:06;101010;;;17.4;43.9
49583;BME280;36329;48.816;44.624;2023-03-22T13:20:24;101018;;;17.4;42.4
49583;BME280;36329;48.816;44.624;2023-03-22T13:23:27;101023;;;17.2;43.1
49583;BME280;36329;48.816;44.624;2023-03-22T13:26:33;101026;;;17.1;43.1
49583;BME280;36329;48.816;44.624;2023-03-22T13:29:36;101026;;;17.1;43.7
49583;BME280;36329;48.816;44.624;2023-03-22T13:32:44;101028;;;17;43.3
49583;BME280;36329;48.816;44.624;2023-03-22T13:35:49;101029;;;17.1;43.7
49583;BME280;36329;48.816;44.624;2023-03-22T13:38:54;101029;;;17;43
49583;BME280;36329;48.816;44.624;2023-03-22T13:42:04;101033;;;17;43
49583;BME280;36329;48.816;44.624;2023-03-22T13:45:28;101034;;;16.8;43.4
49583;BME280;36329;48.816;44.624;2023-03-22T13:48:40;101036;;;16.7;43.6
49583;BME280;36329;48.816;44.624;2023-03-22T13:51:43;101040;;;16.5;44.1
49583;BME280;36329;48.816;44.624;2023-03-22T13:54:48;101041;;;16.6;44.3
49583;BME280;36329;48.816;44.624;2023-03-22T13:57:57;101041;;;16.5;44.1
49583;BME280;36329;48.816;44.624;2023-03-22T14:00:59;101044;;;16.3;44.8
49583;BME280;36329;48.816;44.624;2023-03-22T14:04:06;101049;;;16.4;44.5
49583;BME280;36329;48.816;44.624;2023-03-22T14:07:19;101052;;;16.4;44.8
49583;BME280;36329;48.816;44.624;2023-03-22T14:10:25;101054;;;16.3;44.4
49583;BME280;36329;48.816;44.624;2023-03-22T14:13:38;101056;;;16.4;44.3
49583;BME280;36329;48.816;44.624;2023-03-22T14:16:45;101064;;;16.3;44.5
49583;BME280;36329;48.816;44.624;2023-03-22T14:19:48;101067;;;16.2;44.8
49583;BME280;36329;48.816;44.624;2023-03-22T14:22:56;101068;;;15.9;45.5
49583;BME280;36329;48.816;44.624;2023-03-22T14:26:04;101066;;;16.1;45.5
49583;BME280;36329;48.816;44.624;2023-03-22T14:29:09;101067;;;16.2;45.3
49583;BME280;36329;48.816;44.624;2023-03-22T14:32:15;101073;;;16;46.5
49583;BME280;36329;48.816;44.624;2023-03-22T14:35:21;101078;;;15.8;46.4
49583;BME280;36329;48.816;44.624;2023-03-22T14:38:30;101080;;;15.7;46.8
49583;BME280;36329;48.816;44.624;2023-03-22T14:41:34;101084;;;15.6;47.4
49583;BME280;36329;48.816;44.624;2023-03-22T14:44:38;101087;;;15.6;48.6
49583;BME280;36329;48.816;44.624;2023-03-22T14:47:42;101093;;;15.5;48.4
49583;BME280;36329;48.816;44.624;2023-03-22T14:50:46;101088;;;15.5;48.1
49583;BME280;36329;48.816;44.624;2023-03-22T14:53:49;101097;;;15.5;48.2
49583;BME280;36329;48.816;44.624;2023-03-22T14:56:52;101101;;;15.6;48.4
49583;BME280;36329;48.816;44.624;2023-03-22T14:59:55;101103;;;15.6;48.3
49583;BME280;36329;48.816;44.624;2023-03-22T15:02:59;101106;;;15.5;48.8
49583;BME280;36329;48.816;44.624;2023-03-22T15:06:06;101101;;;15.6;49.3
49583;BME280;36329;48.816;44.624;2023-03-22T15:09:10;101106;;;15.7;49.2
49583;BME280;36329;48.816;44.624;2023-03-22T15:12:14;101109;;;15.7;48.8
49583;BME280;36329;48.816;44.624;2023-03-22T15:15:19;101126;;;15.4;50.1
49583;BME280;36329;48.816;44.624;2023-03-22T15:18:27;101133;;;15.3;50.5
49583;BME280;36329;48.816;44.624;2023-03-22T15:21:31;101120;;;15.4;50.5
49583;BME280;36329;48.816;44.624;2023-03-22T15:24:35;101119;;;15.6;51.1
49583;BME280;36329;48.816;44.624;2023-03-22T15:27:38;101121;;;15.4;50.4
49583;BME280;36329;48.816;44.624;2023-03-22T15:30:43;101129;;;15.3;51.6
49583;BME280;36329;48.816;44.624;2023-03-22T15:33:46;101140;;;14.9;52
49583;BME280;36329;48.816;44.624;2023-03-22T15:36:48;101137;;;14.6;53.2
49583;BME280;36329;48.816;44.624;2023-03-22T15:39:51;101139;;;14.4;53.5
49583;BME280;36329;48.816;44.624;2023-03-22T15:43:08;101140;;;14.4;53.8
49583;BME280;36329;48.816;44.624;2023-03-22T15:46:13;101139;;;14.4;53.9
49583;BME280;36329;48.816;44.624;2023-03-22T15:49:18;101154;;;14;54.5
49583;BME280;36329;48.816;44.624;2023-03-22T15:52:24;101156;;;14.2;54.1
49583;BME280;36329;48.816;44.624;2023-03-22T15:55:30;101152;;;14.2;53.9
49583;BME280;36329;48.816;44.624;2023-03-22T15:58:33;101149;;;14;54.4
49583;BME280;36329;48.816;44.624;2023-03-22T16:01:41;101158;;;13.6;55.4
49583;BME280;36329;48.816;44.624;2023-03-22T16:04:44;101161;;;13.4;56.5
49583;BME280;36329;48.816;44.624;2023-03-22T16:07:46;101162;;;13.4;56.5
49583;BME280;36329;48.816;44.624;2023-03-22T16:10:48;101161;;;13.4;57.9
49583;BME280;36329;48.816;44.624;2023-03-22T16:13:50;101165;;;13.4;56.5
49583;BME280;36329;48.816;44.624;2023-03-22T16:16:52;101168;;;13.6;55.9
49583;BME280;36329;48.816;44.624;2023-03-22T16:19:54;101178;;;13.7;56
49583;BME280;36329;48.816;44.624;2023-03-22T16:22:58;101178;;;13.9;57
49583;BME280;36329;48.816;44.624;2023-03-22T16:26:00;101181;;;14.1;53.9
49583;BME280;36329;48.816;44.624;2023-03-22T16:29:02;101181;;;14.1;54
49583;BME280;36329;48.816;44.624;2023-03-22T16:32:05;101187;;;14;55.1
49583;BME280;36329;48.816;44.624;2023-03-22T16:35:10;101190;;;14.2;53.7
49583;BME280;36329;48.816;44.624;2023-03-22T16:38:16;101195;;;14;54.4
49583;BME280;36329;48.816;44.624;2023-03-22T16:41:20;101200;;;14.1;53.6
49583;BME280;36329;48.816;44.624;2023-03-22T16:44:23;101201;;;14.2;53.3
49583;BME280;36329;48.816;44.624;2023-03-22T16:47:25;101201;;;14.3;52.2
49583;BME280;36329;48.816;44.624;2023-03-22T16:50:31;101198;;;14.4;53.5
49583;BME280;36329;48.816;44.624;2023-03-22T16:53:34;101209;;;14.5;51.7
49583;BME280;36329;48.816;44.624;2023-03-22T16:56:36;101212;;;14.2;52
49583;BME280;36329;48.816;44.624;2023-03-22T16:59:39;101211;;;13.8;53.2
49583;BME280;36329;48.816;44.624;2023-03-22T17:02:41;101212;;;14;53.3
49583;BME280;36329;48.816;44.624;2023-03-22T17:05:43;101220;;;13.8;53.1